sensor_id;sensor_type;location;lat;lon;timestamp;temperature;humidity
70826;SHT31;58446;41.490;22.098;2024-02-21T00:00:55;8.65;61.06
70826;SHT31;58446;41.490;22.098;2024-02-21T00:03:21;8.34;60.64
70826;SHT31;58446;41.490;22.098;2024-02-21T00:05:48;8.21;62.54
70826;SHT31;58446;41.490;22.098;2024-02-21T00:08:13;8.46;61.55
70826;SHT31;58446;41.490;22.098;2024-02-21T00:10:39;8.50;61.43
70826;SHT31;58446;41.490;22.098;2024-02-21T00:13:05;8.28;61.57
70826;SHT31;58446;41.490;22.098;2024-02-21T00:15:31;8.49;61.34
70826;SHT31;58446;41.490;22.098;2024-02-21T00:17:56;8.45;61.58
70826;SHT31;58446;41.490;22.098;2024-02-21T00:20:22;8.52;61.35
70826;SHT31;58446;41.490;22.098;2024-02-21T00:22:48;8.36;61.42
70826;SHT31;58446;41.490;22.098;2024-02-21T00:25:13;8.44;61.45
70826;SHT31;58446;41.490;22.098;2024-02-21T00:27:39;8.25;61.74
70826;SHT31;58446;41.490;22.098;2024-02-21T00:30:05;8.25;61.73
70826;SHT31;58446;41.490;22.098;2024-02-21T00:32:31;8.25;61.78
70826;SHT31;58446;41.490;22.098;2024-02-21T00:35:00;8.32;61.49
70826;SHT31;58446;41.490;22.098;2024-02-21T00:37:27;8.18;61.52
70826;SHT31;58446;41.490;22.098;2024-02-21T00:39:54;7.98;61.91
70826;SHT31;58446;41.490;22.098;2024-02-21T00:42:20;7.80;62.87
70826;SHT31;58446;41.490;22.098;2024-02-21T00:44:46;7.83;62.81
70826;SHT31;58446;41.490;22.098;2024-02-21T00:47:12;7.77;62.69
70826;SHT31;58446;41.490;22.098;2024-02-21T00:49:38;7.75;63.10
70826;SHT31;58446;41.490;22.098;2024-02-21T00:52:03;7.83;63.23
70826;SHT31;58446;41.490;22.098;2024-02-21T00:54:29;8.14;62.34
70826;SHT31;58446;41.490;22.098;2024-02-21T00:56:55;8.06;62.13
70826;SHT31;58446;41.490;22.098;2024-02-21T00:59:20;7.88;62.71
70826;SHT31;58446;41.490;22.098;2024-02-21T01:01:46;7.90;62.67
70826;SHT31;58446;41.490;22.098;2024-02-21T01:04:12;7.83;61.92
70826;SHT31;58446;41.490;22.098;2024-02-21T01:06:37;7.50;63.58
70826;SHT31;58446;41.490;22.098;2024-02-21T01:09:03;7.75;63.06
70826;SHT31;58446;41.490;22.098;2024-02-21T01:11:29;7.90;62.35
70826;SHT31;58446;41.490;22.098;2024-02-21T01:13:55;7.83;62.79
70826;SHT31;58446;41.490;22.098;2024-02-21T01:16:21;7.98;62.23
70826;SHT31;58446;41.490;22.098;2024-02-21T01:18:46;7.98;62.02
70826;SHT31;58446;41.490;22.098;2024-02-21T01:21:12;7.78;62.31
70826;SHT31;58446;41.490;22.098;2024-02-21T01:23:38;7.77;62.15
70826;SHT31;58446;41.490;22.098;2024-02-21T01:26:04;7.66;62.22
70826;SHT31;58446;41.490;22.098;2024-02-21T01:28:30;7.56;62.85
70826;SHT31;58446;41.490;22.098;2024-02-21T01:30:57;7.71;62.40
70826;SHT31;58446;41.490;22.098;2024-02-21T01:33:23;7.84;62.05
70826;SHT31;58446;41.490;22.098;2024-02-21T01:35:48;7.77;61.99
70826;SHT31;58446;41.490;22.098;2024-02-21T01:38:15;7.67;62.38
70826;SHT31;58446;41.490;22.098;2024-02-21T01:40:41;7.47;62.69
70826;SHT31;58446;41.490;22.098;2024-02-21T01:43:16;7.57;62.53
70826;SHT31;58446;41.490;22.098;2024-02-21T01:45:44;7.36;62.12
70826;SHT31;58446;41.490;22.098;2024-02-21T01:48:11;7.43;62.98
70826;SHT31;58446;41.490;22.098;2024-02-21T01:50:37;7.53;62.30
70826;SHT31;58446;41.490;22.098;2024-02-21T01:53:03;7.52;62.62
70826;SHT31;58446;41.490;22.098;2024-02-21T01:55:29;7.70;61.98
70826;SHT31;58446;41.490;22.098;2024-02-21T01:57:55;7.50;61.74
70826;SHT31;58446;41.490;22.098;2024-02-21T02:00:21;7.32;62.78
70826;SHT31;58446;41.490;22.098;2024-02-21T02:02:47;7.57;62.17
70826;SHT31;58446;41.490;22.098;2024-02-21T02:05:15;7.37;62.47
70826;SHT31;58446;41.490;22.098;2024-02-21T02:07:42;7.26;62.68
70826;SHT31;58446;41.490;22.098;2024-02-21T02:10:08;7.25;62.73
70826;SHT31;58446;41.490;22.098;2024-02-21T02:12:35;7.09;62.64
70826;SHT31;58446;41.490;22.098;2024-02-21T02:15:03;7.05;63.25
70826;SHT31;58446;41.490;22.098;2024-02-21T02:17:31;6.75;63.13
70826;SHT31;58446;41.490;22.098;2024-02-21T02:19:57;6.89;63.98
70826;SHT31;58446;41.490;22.098;2024-02-21T02:22:28;5.88;66.06
70826;SHT31;58446;41.490;22.098;2024-02-21T02:24:54;5.83;67.13
70826;SHT31;58446;41.490;22.098;2024-02-21T02:27:20;6.40;66.09
70826;SHT31;58446;41.490;22.098;2024-02-21T02:29:48;5.99;66.10
70826;SHT31;58446;41.490;22.098;2024-02-21T02:32:14;6.74;65.28
70826;SHT31;58446;41.490;22.098;2024-02-21T02:34:40;6.91;64.45
70826;SHT31;58446;41.490;22.098;2024-02-21T02:37:06;6.95;64.27
70826;SHT31;58446;41.490;22.098;2024-02-21T02:39:31;7.08;63.85
70826;SHT31;58446;41.490;22.098;2024-02-21T02:41:57;7.27;63.19
70826;SHT31;58446;41.490;22.098;2024-02-21T02:44:23;7.29;62.89
70826;SHT31;58446;41.490;22.098;2024-02-21T02:46:49;7.33;62.87
70826;SHT31;58446;41.490;22.098;2024-02-21T02:49:15;7.20;62.58
70826;SHT31;58446;41.490;22.098;2024-02-21T02:51:43;6.78;62.58
70826;SHT31;58446;41.490;22.098;2024-02-21T02:54:09;6.92;63.80
70826;SHT31;58446;41.490;22.098;2024-02-21T02:56:35;7.18;62.58
70826;SHT31;58446;41.490;22.098;2024-02-21T02:59:01;5.56;64.93
70826;SHT31;58446;41.490;22.098;2024-02-21T03:01:26;5.68;67.32
70826;SHT31;58446;41.490;22.098;2024-02-21T03:03:53;6.51;64.61
70826;SHT31;58446;41.490;22.098;2024-02-21T03:06:19;5.62;63.26
70826;SHT31;58446;41.490;22.098;2024-02-21T03:08:44;5.95;65.96
70826;SHT31;58446;41.490;22.098;2024-02-21T03:11:10;6.45;63.71
70826;SHT31;58446;41.490;22.098;2024-02-21T03:13:36;6.38;63.77
70826;SHT31;58446;41.490;22.098;2024-02-21T03:16:02;6.40;63.57
70826;SHT31;58446;41.490;22.098;2024-02-21T03:18:28;6.68;63.07
70826;SHT31;58446;41.490;22.098;2024-02-21T03:20:54;5.98;63.43
70826;SHT31;58446;41.490;22.098;2024-02-21T03:23:19;6.30;64.30
70826;SHT31;58446;41.490;22.098;2024-02-21T03:25:45;6.60;63.11
70826;SHT31;58446;41.490;22.098;2024-02-21T03:28:11;6.70;62.84
70826;SHT31;58446;41.490;22.098;2024-02-21T03:30:37;6.68;62.61
70826;SHT31;58446;41.490;22.098;2024-02-21T03:33:03;6.10;63.74
70826;SHT31;58446;41.490;22.098;2024-02-21T03:35:28;6.26;64.06
70826;SHT31;58446;41.490;22.098;2024-02-21T03:37:54;6.48;63.58
70826;SHT31;58446;41.490;22.098;2024-02-21T03:40:20;6.58;63.13
70826;SHT31;58446;41.490;22.098;2024-02-21T03:42:46;6.43;63.31
70826;SHT31;58446;41.490;22.098;2024-02-21T03:45:11;6.37;63.66
70826;SHT31;58446;41.490;22.098;2024-02-21T03:47:37;6.68;62.90
70826;SHT31;58446;41.490;22.098;2024-02-21T03:50:04;6.01;63.24
70826;SHT31;58446;41.490;22.098;2024-02-21T03:52:30;6.24;64.24
70826;SHT31;58446;41.490;22.098;2024-02-21T03:54:55;6.38;63.70
70826;SHT31;58446;41.490;22.098;2024-02-21T03:57:21;6.71;62.81
70826;SHT31;58446;41.490;22.098;2024-02-21T03:59:50;5.92;63.06
70826;SHT31;58446;41.490;22.098;2024-02-21T04:02:16;6.22;64.25
70826;SHT31;58446;41.490;22.098;2024-02-21T04:04:43;6.20;63.76
70826;SHT31;58446;41.490;22.098;2024-02-21T04:07:13;6.34;63.37
70826;SHT31;58446;41.490;22.098;2024-02-21T04:09:38;6.41;63.18
70826;SHT31;58446;41.490;22.098;2024-02-21T04:12:04;6.44;63.10
70826;SHT31;58446;41.490;22.098;2024-02-21T04:14:30;6.71;62.36
70826;SHT31;58446;41.490;22.098;2024-02-21T04:16:56;6.72;62.07
70826;SHT31;58446;41.490;22.098;2024-02-21T04:19:22;6.63;62.21
70826;SHT31;58446;41.490;22.098;2024-02-21T04:21:48;6.65;62.54
70826;SHT31;58446;41.490;22.098;2024-02-21T04:24:14;6.70;62.26
70826;SHT31;58446;41.490;22.098;2024-02-21T04:26:39;6.80;62.11
70826;SHT31;58446;41.490;22.098;2024-02-21T04:29:05;6.82;61.94
70826;SHT31;58446;41.490;22.098;2024-02-21T04:31:34;6.75;62.13
70826;SHT31;58446;41.490;22.098;2024-02-21T04:34:00;6.61;62.48
70826;SHT31;58446;41.490;22.098;2024-02-21T04:36:25;6.47;62.96
70826;SHT31;58446;41.490;22.098;2024-02-21T04:38:51;6.41;63.18
70826;SHT31;58446;41.490;22.098;2024-02-21T04:41:17;6.43;63.05
70826;SHT31;58446;41.490;22.098;2024-02-21T04:43:43;6.47;63.13
70826;SHT31;58446;41.490;22.098;2024-02-21T04:46:08;6.60;62.62
70826;SHT31;58446;41.490;22.098;2024-02-21T04:48:35;6.65;62.18
70826;SHT31;58446;41.490;22.098;2024-02-21T04:51:00;6.64;62.02
70826;SHT31;58446;41.490;22.098;2024-02-21T04:53:26;6.54;62.08
70826;SHT31;58446;41.490;22.098;2024-02-21T04:55:52;6.41;62.19
70826;SHT31;58446;41.490;22.098;2024-02-21T04:58:18;6.37;62.20
70826;SHT31;58446;41.490;22.098;2024-02-21T05:00:43;6.29;62.58
70826;SHT31;58446;41.490;22.098;2024-02-21T05:03:09;6.32;62.29
70826;SHT31;58446;41.490;22.098;2024-02-21T05:05:35;6.26;62.40
70826;SHT31;58446;41.490;22.098;2024-02-21T05:08:01;6.20;62.61
70826;SHT31;58446;41.490;22.098;2024-02-21T05:10:27;6.26;62.45
70826;SHT31;58446;41.490;22.098;2024-02-21T05:12:52;5.61;62.57
70826;SHT31;58446;41.490;22.098;2024-02-21T05:15:18;5.13;64.57
70826;SHT31;58446;41.490;22.098;2024-02-21T05:17:44;5.44;64.76
70826;SHT31;58446;41.490;22.098;2024-02-21T05:20:10;5.88;63.62
70826;SHT31;58446;41.490;22.098;2024-02-21T05:22:35;6.02;62.89
70826;SHT31;58446;41.490;22.098;2024-02-21T05:25:01;5.48;62.25
70826;SHT31;58446;41.490;22.098;2024-02-21T05:27:27;4.70;64.81
70826;SHT31;58446;41.490;22.098;2024-02-21T05:29:53;4.72;66.62
70826;SHT31;58446;41.490;22.098;2024-02-21T05:32:19;4.91;66.47
70826;SHT31;58446;41.490;22.098;2024-02-21T05:34:48;4.99;66.52
70826;SHT31;58446;41.490;22.098;2024-02-21T05:37:15;5.19;65.89
70826;SHT31;58446;41.490;22.098;2024-02-21T05:39:40;5.21;66.16
70826;SHT31;58446;41.490;22.098;2024-02-21T05:42:06;5.72;64.71
70826;SHT31;58446;41.490;22.098;2024-02-21T05:44:32;6.01;64.08
70826;SHT31;58446;41.490;22.098;2024-02-21T05:46:58;6.17;63.20
70826;SHT31;58446;41.490;22.098;2024-02-21T05:49:24;6.07;63.88
70826;SHT31;58446;41.490;22.098;2024-02-21T05:51:49;6.07;63.11
70826;SHT31;58446;41.490;22.098;2024-02-21T05:54:15;5.81;64.51
70826;SHT31;58446;41.490;22.098;2024-02-21T05:56:45;6.19;63.85
70826;SHT31;58446;41.490;22.098;2024-02-21T05:59:11;7.03;61.24
70826;SHT31;58446;41.490;22.098;2024-02-21T06:01:37;7.39;60.13
70826;SHT31;58446;41.490;22.098;2024-02-21T06:04:02;7.37;59.79
70826;SHT31;58446;41.490;22.098;2024-02-21T06:06:28;7.47;59.81
70826;SHT31;58446;41.490;22.098;2024-02-21T06:08:53;7.90;58.77
70826;SHT31;58446;41.490;22.098;2024-02-21T06:11:26;8.72;55.78
70826;SHT31;58446;41.490;22.098;2024-02-21T06:13:52;9.08;55.08
70826;SHT31;58446;41.490;22.098;2024-02-21T06:16:19;9.42;54.24
70826;SHT31;58446;41.490;22.098;2024-02-21T06:18:45;8.96;55.32
70826;SHT31;58446;41.490;22.098;2024-02-21T06:21:11;9.65;54.22
70826;SHT31;58446;41.490;22.098;2024-02-21T06:23:38;10.21;53.10
70826;SHT31;58446;41.490;22.098;2024-02-21T06:26:03;9.81;54.33
70826;SHT31;58446;41.490;22.098;2024-02-21T06:28:29;10.21;53.39
70826;SHT31;58446;41.490;22.098;2024-02-21T06:30:55;10.44;52.52
70826;SHT31;58446;41.490;22.098;2024-02-21T06:33:21;10.41;52.59
70826;SHT31;58446;41.490;22.098;2024-02-21T06:35:51;10.38;53.06
70826;SHT31;58446;41.490;22.098;2024-02-21T06:38:19;10.77;52.65
70826;SHT31;58446;41.490;22.098;2024-02-21T06:40:44;11.02;51.44
70826;SHT31;58446;41.490;22.098;2024-02-21T06:43:16;11.05;52.18
70826;SHT31;58446;41.490;22.098;2024-02-21T06:45:42;11.39;51.69
70826;SHT31;58446;41.490;22.098;2024-02-21T06:48:08;11.77;50.68
70826;SHT31;58446;41.490;22.098;2024-02-21T06:50:34;12.01;50.10
70826;SHT31;58446;41.490;22.098;2024-02-21T06:53:00;11.95;50.48
70826;SHT31;58446;41.490;22.098;2024-02-21T06:55:26;11.49;51.43
70826;SHT31;58446;41.490;22.098;2024-02-21T06:57:51;11.44;51.73
70826;SHT31;58446;41.490;22.098;2024-02-21T07:00:17;11.12;52.44
70826;SHT31;58446;41.490;22.098;2024-02-21T07:02:43;10.95;53.03
70826;SHT31;58446;41.490;22.098;2024-02-21T07:05:09;11.26;52.32
70826;SHT31;58446;41.490;22.098;2024-02-21T07:07:34;10.79;53.21
70826;SHT31;58446;41.490;22.098;2024-02-21T07:10:00;10.33;54.86
70826;SHT31;58446;41.490;22.098;2024-02-21T07:12:26;10.27;54.78
70826;SHT31;58446;41.490;22.098;2024-02-21T07:14:52;10.27;55.51
70826;SHT31;58446;41.490;22.098;2024-02-21T07:17:17;10.60;54.43
70826;SHT31;58446;41.490;22.098;2024-02-21T07:19:43;10.21;55.48
70826;SHT31;58446;41.490;22.098;2024-02-21T07:22:08;10.09;55.93
70826;SHT31;58446;41.490;22.098;2024-02-21T07:24:34;10.33;56.17
70826;SHT31;58446;41.490;22.098;2024-02-21T07:27:00;10.63;55.62
70826;SHT31;58446;41.490;22.098;2024-02-21T07:29:30;10.75;54.68
70826;SHT31;58446;41.490;22.098;2024-02-21T07:31:56;10.88;54.48
70826;SHT31;58446;41.490;22.098;2024-02-21T07:34:22;10.77;54.55
70826;SHT31;58446;41.490;22.098;2024-02-21T07:36:47;10.96;54.49
70826;SHT31;58446;41.490;22.098;2024-02-21T07:39:13;10.81;54.70
70826;SHT31;58446;41.490;22.098;2024-02-21T07:41:40;11.05;54.53
70826;SHT31;58446;41.490;22.098;2024-02-21T07:44:08;11.16;54.09
70826;SHT31;58446;41.490;22.098;2024-02-21T07:46:34;11.50;54.17
70826;SHT31;58446;41.490;22.098;2024-02-21T07:49:00;11.65;54.11
70826;SHT31;58446;41.490;22.098;2024-02-21T07:51:29;11.80;54.07
70826;SHT31;58446;41.490;22.098;2024-02-21T07:53:55;11.99;53.88
70826;SHT31;58446;41.490;22.098;2024-02-21T07:56:21;12.13;53.86
70826;SHT31;58446;41.490;22.098;2024-02-21T07:58:46;12.48;53.43
70826;SHT31;58446;41.490;22.098;2024-02-21T08:01:20;12.60;53.48
70826;SHT31;58446;41.490;22.098;2024-02-21T08:03:54;12.05;51.83
70826;SHT31;58446;41.490;22.098;2024-02-21T08:06:20;11.93;54.71
70826;SHT31;58446;41.490;22.098;2024-02-21T08:08:45;11.91;54.93
70826;SHT31;58446;41.490;22.098;2024-02-21T08:11:11;11.71;55.47
70826;SHT31;58446;41.490;22.098;2024-02-21T08:13:37;11.47;54.60
70826;SHT31;58446;41.490;22.098;2024-02-21T08:16:02;11.36;56.38
70826;SHT31;58446;41.490;22.098;2024-02-21T08:18:29;11.26;56.53
70826;SHT31;58446;41.490;22.098;2024-02-21T08:20:55;11.08;57.04
70826;SHT31;58446;41.490;22.098;2024-02-21T08:23:23;10.77;57.78
70826;SHT31;58446;41.490;22.098;2024-02-21T08:25:50;10.63;58.30
70826;SHT31;58446;41.490;22.098;2024-02-21T08:28:16;10.60;58.08
70826;SHT31;58446;41.490;22.098;2024-02-21T08:30:42;10.37;59.30
70826;SHT31;58446;41.490;22.098;2024-02-21T08:33:14;10.33;59.63
70826;SHT31;58446;41.490;22.098;2024-02-21T08:35:40;10.30;60.46
70826;SHT31;58446;41.490;22.098;2024-02-21T08:38:06;10.29;61.09
70826;SHT31;58446;41.490;22.098;2024-02-21T08:40:32;10.38;60.53
70826;SHT31;58446;41.490;22.098;2024-02-21T08:43:00;10.21;59.46
70826;SHT31;58446;41.490;22.098;2024-02-21T08:45:26;10.10;60.55
70826;SHT31;58446;41.490;22.098;2024-02-21T08:47:52;10.27;60.77
70826;SHT31;58446;41.490;22.098;2024-02-21T08:50:18;10.33;60.11
70826;SHT31;58446;41.490;22.098;2024-02-21T08:52:44;10.40;60.47
70826;SHT31;58446;41.490;22.098;2024-02-21T08:55:09;10.68;59.86
70826;SHT31;58446;41.490;22.098;2024-02-21T08:57:35;10.99;58.88
70826;SHT31;58446;41.490;22.098;2024-02-21T09:00:05;11.53;58.30
70826;SHT31;58446;41.490;22.098;2024-02-21T09:02:41;11.91;58.19
70826;SHT31;58446;41.490;22.098;2024-02-21T09:05:11;12.21;55.67
70826;SHT31;58446;41.490;22.098;2024-02-21T09:07:36;12.46;55.79
70826;SHT31;58446;41.490;22.098;2024-02-21T09:10:02;12.72;55.43
70826;SHT31;58446;41.490;22.098;2024-02-21T09:12:28;12.79;54.37
70826;SHT31;58446;41.490;22.098;2024-02-21T09:14:59;13.02;54.65
70826;SHT31;58446;41.490;22.098;2024-02-21T09:17:28;13.21;53.35
70826;SHT31;58446;41.490;22.098;2024-02-21T09:19:54;13.10;52.27
70826;SHT31;58446;41.490;22.098;2024-02-21T09:22:21;13.11;52.58
70826;SHT31;58446;41.490;22.098;2024-02-21T09:24:47;13.08;52.69
70826;SHT31;58446;41.490;22.098;2024-02-21T09:27:13;13.11;53.41
70826;SHT31;58446;41.490;22.098;2024-02-21T09:29:39;12.35;55.28
70826;SHT31;58446;41.490;22.098;2024-02-21T09:32:05;12.49;55.11
70826;SHT31;58446;41.490;22.098;2024-02-21T09:34:31;12.73;54.53
70826;SHT31;58446;41.490;22.098;2024-02-21T09:36:57;13.13;52.74
70826;SHT31;58446;41.490;22.098;2024-02-21T09:39:23;13.38;53.09
70826;SHT31;58446;41.490;22.098;2024-02-21T09:41:53;13.41;51.13
70826;SHT31;58446;41.490;22.098;2024-02-21T09:44:24;13.44;51.48
70826;SHT31;58446;41.490;22.098;2024-02-21T09:47:02;13.38;51.62
70826;SHT31;58446;41.490;22.098;2024-02-21T09:49:34;13.40;51.94
70826;SHT31;58446;41.490;22.098;2024-02-21T09:52:06;13.24;53.28
70826;SHT31;58446;41.490;22.098;2024-02-21T09:54:34;13.36;53.26
70826;SHT31;58446;41.490;22.098;2024-02-21T09:57:00;13.72;52.64
70826;SHT31;58446;41.490;22.098;2024-02-21T09:59:31;13.89;52.16
70826;SHT31;58446;41.490;22.098;2024-02-21T10:02:02;13.79;50.60
70826;SHT31;58446;41.490;22.098;2024-02-21T10:04:28;14.04;50.65
70826;SHT31;58446;41.490;22.098;2024-02-21T10:06:54;14.15;50.81
70826;SHT31;58446;41.490;22.098;2024-02-21T10:09:24;14.08;50.95
70826;SHT31;58446;41.490;22.098;2024-02-21T10:11:54;14.36;50.35
70826;SHT31;58446;41.490;22.098;2024-02-21T10:14:21;14.40;50.00
70826;SHT31;58446;41.490;22.098;2024-02-21T10:16:56;14.02;50.98
70826;SHT31;58446;41.490;22.098;2024-02-21T10:19:25;13.51;51.60
70826;SHT31;58446;41.490;22.098;2024-02-21T10:22:05;13.10;52.20
70826;SHT31;58446;41.490;22.098;2024-02-21T10:24:34;13.44;53.83
70826;SHT31;58446;41.490;22.098;2024-02-21T10:27:07;13.98;51.39
70826;SHT31;58446;41.490;22.098;2024-02-21T10:29:37;13.83;50.62
70826;SHT31;58446;41.490;22.098;2024-02-21T10:32:10;13.43;51.65
70826;SHT31;58446;41.490;22.098;2024-02-21T10:34:38;13.83;52.61
70826;SHT31;58446;41.490;22.098;2024-02-21T10:37:06;14.25;50.50
70826;SHT31;58446;41.490;22.098;2024-02-21T10:39:33;14.61;49.49
70826;SHT31;58446;41.490;22.098;2024-02-21T10:42:01;14.78;47.94
70826;SHT31;58446;41.490;22.098;2024-02-21T10:44:30;14.99;47.89
70826;SHT31;58446;41.490;22.098;2024-02-21T10:46:57;13.95;50.38
70826;SHT31;58446;41.490;22.098;2024-02-21T10:49:24;14.01;50.74
70826;SHT31;58446;41.490;22.098;2024-02-21T10:51:59;14.15;50.09
70826;SHT31;58446;41.490;22.098;2024-02-21T10:54:39;13.95;50.29
70826;SHT31;58446;41.490;22.098;2024-02-21T10:57:06;14.16;50.37
70826;SHT31;58446;41.490;22.098;2024-02-21T10:59:32;14.10;50.37
70826;SHT31;58446;41.490;22.098;2024-02-21T11:01:58;14.41;49.95
70826;SHT31;58446;41.490;22.098;2024-02-21T11:04:25;14.60;49.34
70826;SHT31;58446;41.490;22.098;2024-02-21T11:06:52;14.55;49.13
70826;SHT31;58446;41.490;22.098;2024-02-21T11:09:17;14.77;49.26
70826;SHT31;58446;41.490;22.098;2024-02-21T11:11:44;15.01;47.70
70826;SHT31;58446;41.490;22.098;2024-02-21T11:14:17;15.11;48.11
70826;SHT31;58446;41.490;22.098;2024-02-21T11:16:43;15.19;48.42
70826;SHT31;58446;41.490;22.098;2024-02-21T11:19:29;14.99;47.33
70826;SHT31;58446;41.490;22.098;2024-02-21T11:21:57;15.22;47.33
70826;SHT31;58446;41.490;22.098;2024-02-21T11:24:31;15.21;47.42
70826;SHT31;58446;41.490;22.098;2024-02-21T11:27:19;14.84;46.62
70826;SHT31;58446;41.490;22.098;2024-02-21T11:29:56;14.85;46.89
70826;SHT31;58446;41.490;22.098;2024-02-21T11:32:22;14.57;46.81
70826;SHT31;58446;41.490;22.098;2024-02-21T11:34:59;14.60;46.47
70826;SHT31;58446;41.490;22.098;2024-02-21T11:37:31;14.25;46.71
70826;SHT31;58446;41.490;22.098;2024-02-21T11:40:03;14.59;45.24
70826;SHT31;58446;41.490;22.098;2024-02-21T11:42:30;14.89;44.10
70826;SHT31;58446;41.490;22.098;2024-02-21T11:45:00;14.97;44.45
70826;SHT31;58446;41.490;22.098;2024-02-21T11:47:28;15.21;44.40
70826;SHT31;58446;41.490;22.098;2024-02-21T11:49:53;15.29;44.89
70826;SHT31;58446;41.490;22.098;2024-02-21T11:52:23;15.48;42.78
70826;SHT31;58446;41.490;22.098;2024-02-21T11:54:53;15.45;42.43
70826;SHT31;58446;41.490;22.098;2024-02-21T11:57:20;14.89;42.80
70826;SHT31;58446;41.490;22.098;2024-02-21T11:59:46;14.97;43.18
70826;SHT31;58446;41.490;22.098;2024-02-21T12:02:12;14.95;42.18
70826;SHT31;58446;41.490;22.098;2024-02-21T12:04:38;14.95;42.12
70826;SHT31;58446;41.490;22.098;2024-02-21T12:07:04;15.25;41.56
70826;SHT31;58446;41.490;22.098;2024-02-21T12:09:30;15.55;41.90
70826;SHT31;58446;41.490;22.098;2024-02-21T12:12:00;15.62;40.07
70826;SHT31;58446;41.490;22.098;2024-02-21T12:14:27;15.70;41.23
70826;SHT31;58446;41.490;22.098;2024-02-21T12:16:54;15.73;40.59
70826;SHT31;58446;41.490;22.098;2024-02-21T12:19:20;15.89;40.13
70826;SHT31;58446;41.490;22.098;2024-02-21T12:21:48;16.03;39.24
70826;SHT31;58446;41.490;22.098;2024-02-21T12:24:22;16.08;38.65
70826;SHT31;58446;41.490;22.098;2024-02-21T12:26:49;16.25;38.21
70826;SHT31;58446;41.490;22.098;2024-02-21T12:29:15;16.17;38.28
70826;SHT31;58446;41.490;22.098;2024-02-21T12:31:41;15.62;39.30
70826;SHT31;58446;41.490;22.098;2024-02-21T12:34:07;15.08;39.17
70826;SHT31;58446;41.490;22.098;2024-02-21T12:36:45;14.74;39.74
70826;SHT31;58446;41.490;22.098;2024-02-21T12:39:13;15.19;40.70
70826;SHT31;58446;41.490;22.098;2024-02-21T12:41:39;15.43;39.23
70826;SHT31;58446;41.490;22.098;2024-02-21T12:44:08;15.73;37.27
70826;SHT31;58446;41.490;22.098;2024-02-21T12:46:35;15.80;39.16
70826;SHT31;58446;41.490;22.098;2024-02-21T12:49:01;15.62;38.24
70826;SHT31;58446;41.490;22.098;2024-02-21T12:51:28;15.66;38.31
70826;SHT31;58446;41.490;22.098;2024-02-21T12:53:55;15.98;38.02
70826;SHT31;58446;41.490;22.098;2024-02-21T12:56:21;16.03;37.55
70826;SHT31;58446;41.490;22.098;2024-02-21T12:58:46;16.06;37.61
70826;SHT31;58446;41.490;22.098;2024-02-21T13:01:12;16.14;37.30
70826;SHT31;58446;41.490;22.098;2024-02-21T13:03:38;16.28;38.36
70826;SHT31;58446;41.490;22.098;2024-02-21T13:06:05;16.35;37.86
70826;SHT31;58446;41.490;22.098;2024-02-21T13:08:30;16.41;38.61
70826;SHT31;58446;41.490;22.098;2024-02-21T13:10:56;16.35;36.75
70826;SHT31;58446;41.490;22.098;2024-02-21T13:13:22;16.37;36.91
70826;SHT31;58446;41.490;22.098;2024-02-21T13:15:48;16.18;36.52
70826;SHT31;58446;41.490;22.098;2024-02-21T13:18:14;16.01;36.81
70826;SHT31;58446;41.490;22.098;2024-02-21T13:20:39;15.96;38.00
70826;SHT31;58446;41.490;22.098;2024-02-21T13:23:05;15.93;37.65
70826;SHT31;58446;41.490;22.098;2024-02-21T13:25:31;15.85;38.34
70826;SHT31;58446;41.490;22.098;2024-02-21T13:27:56;15.77;38.71
70826;SHT31;58446;41.490;22.098;2024-02-21T13:30:22;15.40;39.68
70826;SHT31;58446;41.490;22.098;2024-02-21T13:32:48;15.36;39.84
70826;SHT31;58446;41.490;22.098;2024-02-21T13:35:14;15.43;39.81
70826;SHT31;58446;41.490;22.098;2024-02-21T13:37:41;15.43;39.71
70826;SHT31;58446;41.490;22.098;2024-02-21T13:40:07;15.50;39.47
70826;SHT31;58446;41.490;22.098;2024-02-21T13:42:37;15.27;40.29
70826;SHT31;58446;41.490;22.098;2024-02-21T13:45:04;15.17;40.62
70826;SHT31;58446;41.490;22.098;2024-02-21T13:47:33;14.83;41.30
70826;SHT31;58446;41.490;22.098;2024-02-21T13:49:59;14.85;41.32
70826;SHT31;58446;41.490;22.098;2024-02-21T13:52:25;14.99;41.32
70826;SHT31;58446;41.490;22.098;2024-02-21T13:54:54;14.97;41.23
70826;SHT31;58446;41.490;22.098;2024-02-21T13:57:19;15.05;40.90
70826;SHT31;58446;41.490;22.098;2024-02-21T13:59:45;15.05;41.03
70826;SHT31;58446;41.490;22.098;2024-02-21T14:02:11;15.11;40.83
70826;SHT31;58446;41.490;22.098;2024-02-21T14:04:38;15.02;40.74
70826;SHT31;58446;41.490;22.098;2024-02-21T14:07:03;14.98;40.96
70826;SHT31;58446;41.490;22.098;2024-02-21T14:09:29;14.91;40.86
70826;SHT31;58446;41.490;22.098;2024-02-21T14:11:55;14.81;41.67
70826;SHT31;58446;41.490;22.098;2024-02-21T14:14:21;14.83;41.58
70826;SHT31;58446;41.490;22.098;2024-02-21T14:16:47;14.84;41.60
70826;SHT31;58446;41.490;22.098;2024-02-21T14:19:15;14.71;41.74
70826;SHT31;58446;41.490;22.098;2024-02-21T14:21:42;14.44;42.18
70826;SHT31;58446;41.490;22.098;2024-02-21T14:24:08;14.36;42.45
70826;SHT31;58446;41.490;22.098;2024-02-21T14:26:33;14.34;42.62
70826;SHT31;58446;41.490;22.098;2024-02-21T14:29:01;14.39;42.39
70826;SHT31;58446;41.490;22.098;2024-02-21T14:31:31;14.37;42.41
70826;SHT31;58446;41.490;22.098;2024-02-21T14:33:58;14.37;42.54
70826;SHT31;58446;41.490;22.098;2024-02-21T14:36:23;14.47;42.55
70826;SHT31;58446;41.490;22.098;2024-02-21T14:38:49;14.43;42.55
70826;SHT31;58446;41.490;22.098;2024-02-21T14:41:17;14.43;42.67
70826;SHT31;58446;41.490;22.098;2024-02-21T14:43:43;14.32;42.60
70826;SHT31;58446;41.490;22.098;2024-02-21T14:46:10;14.33;42.82
70826;SHT31;58446;41.490;22.098;2024-02-21T14:48:37;14.34;42.90
70826;SHT31;58446;41.490;22.098;2024-02-21T14:51:03;14.33;42.39
70826;SHT31;58446;41.490;22.098;2024-02-21T14:53:30;14.36;42.23
70826;SHT31;58446;41.490;22.098;2024-02-21T14:55:58;14.39;42.23
70826;SHT31;58446;41.490;22.098;2024-02-21T14:58:24;14.40;42.52
70826;SHT31;58446;41.490;22.098;2024-02-21T15:00:50;14.39;42.56
70826;SHT31;58446;41.490;22.098;2024-02-21T15:03:18;14.44;42.66
70826;SHT31;58446;41.490;22.098;2024-02-21T15:05:47;14.43;42.60
70826;SHT31;58446;41.490;22.098;2024-02-21T15:08:13;14.43;42.43
70826;SHT31;58446;41.490;22.098;2024-02-21T15:10:42;14.41;42.26
70826;SHT31;58446;41.490;22.098;2024-02-21T15:13:08;14.41;42.39
70826;SHT31;58446;41.490;22.098;2024-02-21T15:15:34;14.37;42.42
70826;SHT31;58446;41.490;22.098;2024-02-21T15:17:59;14.32;42.60
70826;SHT31;58446;41.490;22.098;2024-02-21T15:20:25;14.26;43.17